Terminal Aerodrome Forecast
Issued by NWS Wakefield, VA

Home | Current Version | Previous Version | Text Only | Print | Product List | Glossary On
Versions: 1 2 3 4 5 6 7 8 9 10 11 12
000
FTUS41 KAKQ 282340
TAFRIC
TAF
KRIC 282340Z 2900/2924 14004KT P6SM SCT250
     FM290800 14003KT 4SM BR BKN250
     FM291000 VRB03KT 1SM BR OVC002
     FM291300 12004KT 4SM BR OVC015
     FM291600 10006KT P6SM BKN050
     FM292100 09007KT 4SM SHRA OVC025=

USA.gov is the U.S. government's official web portal to all federal, state and local government web resources and services.